sensor_id;sensor_type;location;lat;lon;timestamp;pressure;altitude;pressure_sealevel;temperature;humidity
62038;BME280;47991;42.974;12.082;2022-09-12T00:01:05;97760.28;;;16.22;66.59
62038;BME280;47991;42.974;12.082;2022-09-12T00:03:39;97762.58;;;16.22;65.55
62038;BME280;47991;42.974;12.082;2022-09-12T00:06:17;97759.92;;;16.18;65.25
62038;BME280;47991;42.974;12.082;2022-09-12T00:08:44;97761.33;;;16.12;66.82
62038;BME280;47991;42.974;12.082;2022-09-12T00:11:12;97759.77;;;16.07;66.70
62038;BME280;47991;42.974;12.082;2022-09-12T00:13:40;97755.82;;;16.11;66.57
62038;BME280;47991;42.974;12.082;2022-09-12T00:16:12;97755.40;;;16.16;66.11
62038;BME280;47991;42.974;12.082;2022-09-12T00:18:40;97757.17;;;16.20;65.53
62038;BME280;47991;42.974;12.082;2022-09-12T00:21:07;97753.04;;;16.24;65.16
62038;BME280;47991;42.974;12.082;2022-09-12T00:23:34;97755.05;;;16.16;65.88
62038;BME280;47991;42.974;12.082;2022-09-12T00:26:03;97756.29;;;16.05;66.63
62038;BME280;47991;42.974;12.082;2022-09-12T00:28:32;97758.52;;;15.97;65.69
62038;BME280;47991;42.974;12.082;2022-09-12T00:31:00;97757.04;;;15.91;66.44
62038;BME280;47991;42.974;12.082;2022-09-12T00:33:29;97758.92;;;15.85;66.22
62038;BME280;47991;42.974;12.082;2022-09-12T00:35:56;97760.97;;;15.80;66.11
62038;BME280;47991;42.974;12.082;2022-09-12T00:38:23;97761.73;;;15.75;66.67
62038;BME280;47991;42.974;12.082;2022-09-12T00:40:51;97755.64;;;15.71;66.40
62038;BME280;47991;42.974;12.082;2022-09-12T00:45:56;97751.34;;;15.68;67.04
62038;BME280;47991;42.974;12.082;2022-09-12T00:48:28;97754.42;;;15.67;66.88
62038;BME280;47991;42.974;12.082;2022-09-12T00:50:57;97753.79;;;15.69;66.73
62038;BME280;47991;42.974;12.082;2022-09-12T00:53:24;97753.64;;;15.68;66.76
62038;BME280;47991;42.974;12.082;2022-09-12T00:55:52;97754.89;;;15.68;66.71
62038;BME280;47991;42.974;12.082;2022-09-12T00:58:35;97751.23;;;15.67;66.86
62038;BME280;47991;42.974;12.082;2022-09-12T01:01:03;97755.46;;;15.64;67.31
62038;BME280;47991;42.974;12.082;2022-09-12T01:03:30;97752.20;;;15.62;67.75
62038;BME280;47991;42.974;12.082;2022-09-12T01:05:59;97751.03;;;15.60;67.41
62038;BME280;47991;42.974;12.082;2022-09-12T01:08:29;97748.48;;;15.61;67.89
62038;BME280;47991;42.974;12.082;2022-09-12T01:10:56;97751.33;;;15.61;67.37
62038;BME280;47991;42.974;12.082;2022-09-12T01:13:23;97753.02;;;15.63;67.66
62038;BME280;47991;42.974;12.082;2022-09-12T01:15:51;97755.21;;;15.62;67.37
62038;BME280;47991;42.974;12.082;2022-09-12T01:18:31;97750.06;;;15.58;67.26
62038;BME280;47991;42.974;12.082;2022-09-12T01:21:10;97747.54;;;15.47;67.70
62038;BME280;47991;42.974;12.082;2022-09-12T01:34:11;97743.08;;;15.29;68.08
62038;BME280;47991;42.974;12.082;2022-09-12T01:36:54;97744.72;;;15.25;67.77
62038;BME280;47991;42.974;12.082;2022-09-12T01:50:33;97736.98;;;15.03;68.88
62038;BME280;47991;42.974;12.082;2022-09-12T01:53:08;97735.59;;;14.99;67.94
62038;BME280;47991;42.974;12.082;2022-09-12T01:55:47;97732.05;;;14.95;68.12
62038;BME280;47991;42.974;12.082;2022-09-12T01:58:18;97733.48;;;14.90;68.85
62038;BME280;47991;42.974;12.082;2022-09-12T02:00:52;97731.23;;;14.85;68.95
62038;BME280;47991;42.974;12.082;2022-09-12T02:03:26;97728.56;;;14.78;68.91
62038;BME280;47991;42.974;12.082;2022-09-12T02:05:59;97729.66;;;14.69;69.46
62038;BME280;47991;42.974;12.082;2022-09-12T02:09:01;97724.58;;;14.68;69.86
62038;BME280;47991;42.974;12.082;2022-09-12T02:11:20;97725.35;;;14.66;70.68
62038;BME280;47991;42.974;12.082;2022-09-12T02:13:55;97725.47;;;14.63;71.08
62038;BME280;47991;42.974;12.082;2022-09-12T02:16:31;97721.06;;;14.58;71.08
62038;BME280;47991;42.974;12.082;2022-09-12T02:19:02;97722.16;;;14.57;70.67
62038;BME280;47991;42.974;12.082;2022-09-12T02:21:31;97720.82;;;14.55;70.51
62038;BME280;47991;42.974;12.082;2022-09-12T02:24:01;97720.96;;;14.52;71.16
62038;BME280;47991;42.974;12.082;2022-09-12T02:26:33;97720.71;;;14.50;69.83
62038;BME280;47991;42.974;12.082;2022-09-12T02:29:01;97719.12;;;14.54;69.19
62038;BME280;47991;42.974;12.082;2022-09-12T02:34:03;97716.56;;;14.51;69.37
62038;BME280;47991;42.974;12.082;2022-09-12T02:39:07;97717.83;;;14.30;70.02
62038;BME280;47991;42.974;12.082;2022-09-12T02:41:35;97719.38;;;14.19;69.87
62038;BME280;47991;42.974;12.082;2022-09-12T02:44:02;97718.59;;;14.17;69.51
62038;BME280;47991;42.974;12.082;2022-09-12T02:46:32;97714.89;;;14.20;70.41
62038;BME280;47991;42.974;12.082;2022-09-12T02:49:03;97712.94;;;14.20;69.74
62038;BME280;47991;42.974;12.082;2022-09-12T02:51:30;97711.20;;;14.19;69.87
62038;BME280;47991;42.974;12.082;2022-09-12T02:53:58;97710.95;;;14.17;70.35
62038;BME280;47991;42.974;12.082;2022-09-12T02:56:27;97711.18;;;14.12;71.11
62038;BME280;47991;42.974;12.082;2022-09-12T02:58:56;97710.33;;;14.07;72.28
62038;BME280;47991;42.974;12.082;2022-09-12T03:08:58;97705.51;;;13.91;70.79
62038;BME280;47991;42.974;12.082;2022-09-12T03:11:39;97707.44;;;13.87;71.43
62038;BME280;47991;42.974;12.082;2022-09-12T03:19:51;97703.87;;;13.88;73.50
62038;BME280;47991;42.974;12.082;2022-09-12T03:22:22;97704.55;;;13.92;72.96
62038;BME280;47991;42.974;12.082;2022-09-12T03:27:37;97704.79;;;13.91;72.04
62038;BME280;47991;42.974;12.082;2022-09-12T03:30:07;97703.87;;;13.83;72.08
62038;BME280;47991;42.974;12.082;2022-09-12T03:35:08;97709.68;;;13.72;73.22
62038;BME280;47991;42.974;12.082;2022-09-12T03:37:35;97712.44;;;13.65;72.12
62038;BME280;47991;42.974;12.082;2022-09-12T03:40:03;97710.23;;;13.59;71.54
62038;BME280;47991;42.974;12.082;2022-09-12T03:42:31;97709.45;;;13.52;71.66
62038;BME280;47991;42.974;12.082;2022-09-12T03:44:58;97707.14;;;13.47;72.49
62038;BME280;47991;42.974;12.082;2022-09-12T03:47:25;97708.15;;;13.49;72.90
62038;BME280;47991;42.974;12.082;2022-09-12T03:49:53;97711.52;;;13.49;72.83
62038;BME280;47991;42.974;12.082;2022-09-12T03:52:20;97709.15;;;13.51;72.76
62038;BME280;47991;42.974;12.082;2022-09-12T03:54:47;97713.30;;;13.53;72.78
62038;BME280;47991;42.974;12.082;2022-09-12T03:57:15;97715.48;;;13.52;72.47
62038;BME280;47991;42.974;12.082;2022-09-12T03:59:42;97715.05;;;13.54;71.94
62038;BME280;47991;42.974;12.082;2022-09-12T04:02:09;97717.12;;;13.55;71.83
62038;BME280;47991;42.974;12.082;2022-09-12T04:04:40;97717.93;;;13.53;71.81
62038;BME280;47991;42.974;12.082;2022-09-12T04:07:09;97723.86;;;13.52;71.88
62038;BME280;47991;42.974;12.082;2022-09-12T04:09:36;97718.55;;;13.51;72.07
62038;BME280;47991;42.974;12.082;2022-09-12T04:12:03;97716.70;;;13.53;72.06
62038;BME280;47991;42.974;12.082;2022-09-12T04:14:31;97718.08;;;13.54;71.91
62038;BME280;47991;42.974;12.082;2022-09-12T04:16:58;97719.88;;;13.53;72.00
62038;BME280;47991;42.974;12.082;2022-09-12T04:19:26;97713.81;;;13.49;71.71
62038;BME280;47991;42.974;12.082;2022-09-12T04:21:53;97714.48;;;13.46;72.17
62038;BME280;47991;42.974;12.082;2022-09-12T04:24:20;97716.27;;;13.46;72.27
62038;BME280;47991;42.974;12.082;2022-09-12T04:26:47;97717.60;;;13.44;72.11
62038;BME280;47991;42.974;12.082;2022-09-12T04:29:15;97718.82;;;13.44;72.13
62038;BME280;47991;42.974;12.082;2022-09-12T04:31:42;97719.69;;;13.40;72.55
62038;BME280;47991;42.974;12.082;2022-09-12T04:34:09;97722.17;;;13.40;72.84
62038;BME280;47991;42.974;12.082;2022-09-12T04:36:37;97721.70;;;13.43;72.89
62038;BME280;47991;42.974;12.082;2022-09-12T04:39:04;97718.96;;;13.45;73.18
62038;BME280;47991;42.974;12.082;2022-09-12T04:41:33;97725.39;;;13.44;73.37
62038;BME280;47991;42.974;12.082;2022-09-12T04:44:02;97727.61;;;13.46;73.19
62038;BME280;47991;42.974;12.082;2022-09-12T04:46:30;97725.70;;;13.45;73.28
62038;BME280;47991;42.974;12.082;2022-09-12T04:48:58;97727.64;;;13.41;72.98
62038;BME280;47991;42.974;12.082;2022-09-12T04:51:29;97725.96;;;13.39;73.14
62038;BME280;47991;42.974;12.082;2022-09-12T04:53:57;97724.61;;;13.37;73.49
62038;BME280;47991;42.974;12.082;2022-09-12T04:56:26;97730.98;;;13.37;73.18
62038;BME280;47991;42.974;12.082;2022-09-12T04:58:55;97731.80;;;13.40;73.01
62038;BME280;47991;42.974;12.082;2022-09-12T05:01:22;97733.59;;;13.39;73.27
62038;BME280;47991;42.974;12.082;2022-09-12T05:03:50;97739.02;;;13.36;73.90
62038;BME280;47991;42.974;12.082;2022-09-12T05:06:24;97743.18;;;13.39;73.89
62038;BME280;47991;42.974;12.082;2022-09-12T05:08:52;97745.92;;;13.50;73.41
62038;BME280;47991;42.974;12.082;2022-09-12T05:11:24;97750.48;;;13.60;73.63
62038;BME280;47991;42.974;12.082;2022-09-12T05:13:52;97751.88;;;13.74;73.35
62038;BME280;47991;42.974;12.082;2022-09-12T05:16:20;97749.83;;;14.14;72.83
62038;BME280;47991;42.974;12.082;2022-09-12T05:18:48;97753.36;;;14.72;71.92
62038;BME280;47991;42.974;12.082;2022-09-12T05:21:17;97753.38;;;15.18;71.47
62038;BME280;47991;42.974;12.082;2022-09-12T05:23:45;97751.27;;;15.51;70.48
62038;BME280;47991;42.974;12.082;2022-09-12T05:26:15;97758.98;;;15.40;70.56
62038;BME280;47991;42.974;12.082;2022-09-12T05:28:42;97763.52;;;15.29;70.68
62038;BME280;47991;42.974;12.082;2022-09-12T05:31:14;97761.58;;;15.63;70.78
62038;BME280;47991;42.974;12.082;2022-09-12T05:33:42;97760.88;;;16.98;68.75
62038;BME280;47991;42.974;12.082;2022-09-12T05:36:10;97755.54;;;18.58;64.66
62038;BME280;47991;42.974;12.082;2022-09-12T05:38:38;97755.23;;;20.12;60.27
62038;BME280;47991;42.974;12.082;2022-09-12T05:41:09;97754.66;;;21.35;56.80
62038;BME280;47991;42.974;12.082;2022-09-12T05:43:38;97754.02;;;22.55;52.06
62038;BME280;47991;42.974;12.082;2022-09-12T05:46:09;97754.73;;;23.60;49.29
62038;BME280;47991;42.974;12.082;2022-09-12T05:48:36;97752.99;;;24.59;46.64
62038;BME280;47991;42.974;12.082;2022-09-12T05:51:06;97755.86;;;25.57;44.28
62038;BME280;47991;42.974;12.082;2022-09-12T05:53:38;97750.84;;;26.36;42.64
62038;BME280;47991;42.974;12.082;2022-09-12T05:56:16;97748.08;;;26.91;42.76
62038;BME280;47991;42.974;12.082;2022-09-12T05:58:44;97749.04;;;27.19;42.30
62038;BME280;47991;42.974;12.082;2022-09-12T06:01:13;97749.33;;;27.87;40.45
62038;BME280;47991;42.974;12.082;2022-09-12T06:03:42;97744.69;;;28.81;38.80
62038;BME280;47991;42.974;12.082;2022-09-12T06:06:11;97747.86;;;29.57;37.10
62038;BME280;47991;42.974;12.082;2022-09-12T06:08:41;97741.27;;;30.27;36.00
62038;BME280;47991;42.974;12.082;2022-09-12T06:11:09;97743.62;;;30.70;34.14
62038;BME280;47991;42.974;12.082;2022-09-12T06:13:38;97746.27;;;30.92;34.13
62038;BME280;47991;42.974;12.082;2022-09-12T06:16:09;97749.08;;;31.58;33.62
62038;BME280;47991;42.974;12.082;2022-09-12T06:18:36;97748.30;;;31.90;32.76
62038;BME280;47991;42.974;12.082;2022-09-12T06:21:05;97746.42;;;30.84;35.01
62038;BME280;47991;42.974;12.082;2022-09-12T06:23:33;97749.11;;;29.68;36.23
62038;BME280;47991;42.974;12.082;2022-09-12T06:26:01;97751.57;;;29.39;37.70
62038;BME280;47991;42.974;12.082;2022-09-12T06:28:28;97748.94;;;28.80;38.42
62038;BME280;47991;42.974;12.082;2022-09-12T06:31:05;97750.02;;;28.56;38.81
62038;BME280;47991;42.974;12.082;2022-09-12T06:33:33;97751.07;;;28.11;38.86
62038;BME280;47991;42.974;12.082;2022-09-12T06:36:05;97754.61;;;26.38;41.10
62038;BME280;47991;42.974;12.082;2022-09-12T06:38:33;97757.63;;;24.62;45.49
62038;BME280;47991;42.974;12.082;2022-09-12T06:41:02;97762.95;;;23.46;48.45
62038;BME280;47991;42.974;12.082;2022-09-12T06:43:30;97759.36;;;22.51;50.99
62038;BME280;47991;42.974;12.082;2022-09-12T06:45:57;97762.33;;;22.78;51.09
62038;BME280;47991;42.974;12.082;2022-09-12T06:48:25;97761.80;;;23.03;50.18
62038;BME280;47991;42.974;12.082;2022-09-12T06:51:05;97764.52;;;22.56;50.54
62038;BME280;47991;42.974;12.082;2022-09-12T06:53:36;97764.08;;;21.98;52.43
62038;BME280;47991;42.974;12.082;2022-09-12T06:56:04;97767.67;;;21.59;53.82
62038;BME280;47991;42.974;12.082;2022-09-12T06:58:33;97766.63;;;21.41;54.23
62038;BME280;47991;42.974;12.082;2022-09-12T07:01:01;97768.30;;;20.81;55.96
62038;BME280;47991;42.974;12.082;2022-09-12T07:03:31;97766.63;;;20.59;57.92
62038;BME280;47991;42.974;12.082;2022-09-12T07:06:07;97765.48;;;21.11;56.87
62038;BME280;47991;42.974;12.082;2022-09-12T07:08:34;97765.96;;;21.25;56.97
62038;BME280;47991;42.974;12.082;2022-09-12T07:13:46;97772.61;;;20.74;57.92
62038;BME280;47991;42.974;12.082;2022-09-12T07:16:14;97770.73;;;20.75;58.57
62038;BME280;47991;42.974;12.082;2022-09-12T07:18:42;97771.52;;;20.92;57.11
62038;BME280;47991;42.974;12.082;2022-09-12T07:21:10;97771.93;;;21.22;56.27
62038;BME280;47991;42.974;12.082;2022-09-12T07:23:38;97773.93;;;21.39;56.70
62038;BME280;47991;42.974;12.082;2022-09-12T07:26:07;97774.69;;;21.64;55.82
62038;BME280;47991;42.974;12.082;2022-09-12T07:28:35;97775.09;;;21.25;57.52
62038;BME280;47991;42.974;12.082;2022-09-12T07:31:04;97778.87;;;21.25;56.80
62038;BME280;47991;42.974;12.082;2022-09-12T07:33:31;97779.31;;;21.52;56.94
62038;BME280;47991;42.974;12.082;2022-09-12T07:36:02;97777.25;;;21.71;57.28
62038;BME280;47991;42.974;12.082;2022-09-12T07:38:30;97774.70;;;21.91;56.19
62038;BME280;47991;42.974;12.082;2022-09-12T07:40:57;97776.04;;;22.06;54.84
62038;BME280;47991;42.974;12.082;2022-09-12T07:43:24;97774.18;;;22.83;53.58
62038;BME280;47991;42.974;12.082;2022-09-12T07:45:55;97771.10;;;24.42;47.19
62038;BME280;47991;42.974;12.082;2022-09-12T07:48:23;97769.44;;;24.59;47.52
62038;BME280;47991;42.974;12.082;2022-09-12T07:51:00;97778.79;;;23.93;50.35
62038;BME280;47991;42.974;12.082;2022-09-12T07:53:31;97777.86;;;23.51;51.99
62038;BME280;47991;42.974;12.082;2022-09-12T07:56:00;97776.52;;;22.99;52.21
62038;BME280;47991;42.974;12.082;2022-09-12T07:58:30;97779.55;;;22.86;51.68
62038;BME280;47991;42.974;12.082;2022-09-12T08:01:08;97780.30;;;22.55;52.59
62038;BME280;47991;42.974;12.082;2022-09-12T08:03:36;97786.43;;;22.83;50.27
62038;BME280;47991;42.974;12.082;2022-09-12T08:06:06;97784.99;;;22.92;43.82
62038;BME280;47991;42.974;12.082;2022-09-12T08:08:35;97783.25;;;22.96;42.99
62038;BME280;47991;42.974;12.082;2022-09-12T08:11:04;97785.77;;;23.03;42.78
62038;BME280;47991;42.974;12.082;2022-09-12T08:13:32;97783.89;;;23.07;44.06
62038;BME280;47991;42.974;12.082;2022-09-12T08:16:01;97784.45;;;22.97;41.13
62038;BME280;47991;42.974;12.082;2022-09-12T08:18:29;97782.74;;;23.01;41.17
62038;BME280;47991;42.974;12.082;2022-09-12T08:20:58;97786.98;;;23.06;41.54
62038;BME280;47991;42.974;12.082;2022-09-12T08:23:26;97786.59;;;23.23;41.33
62038;BME280;47991;42.974;12.082;2022-09-12T08:26:00;97787.10;;;23.39;41.71
62038;BME280;47991;42.974;12.082;2022-09-12T08:28:29;97786.23;;;23.54;39.94
62038;BME280;47991;42.974;12.082;2022-09-12T08:31:04;97787.13;;;23.68;39.44
62038;BME280;47991;42.974;12.082;2022-09-12T08:33:31;97785.42;;;23.64;39.34
62038;BME280;47991;42.974;12.082;2022-09-12T08:36:06;97786.05;;;23.81;40.46
62038;BME280;47991;42.974;12.082;2022-09-12T08:38:34;97782.90;;;23.98;39.04
62038;BME280;47991;42.974;12.082;2022-09-12T08:46:17;97779.76;;;24.33;38.40
62038;BME280;47991;42.974;12.082;2022-09-12T08:48:45;97775.15;;;24.49;37.18
62038;BME280;47991;42.974;12.082;2022-09-12T08:51:13;97776.33;;;24.59;36.71
62038;BME280;47991;42.974;12.082;2022-09-12T08:53:41;97777.45;;;24.74;37.00
62038;BME280;47991;42.974;12.082;2022-09-12T08:56:13;97780.73;;;24.86;36.90
62038;BME280;47991;42.974;12.082;2022-09-12T08:58:42;97777.02;;;24.87;34.61
62038;BME280;47991;42.974;12.082;2022-09-12T09:09:09;97792.04;;;24.76;38.36
62038;BME280;47991;42.974;12.082;2022-09-12T09:17:07;97790.61;;;24.89;33.26
62038;BME280;47991;42.974;12.082;2022-09-12T09:19:36;97793.31;;;25.08;35.35
62038;BME280;47991;42.974;12.082;2022-09-12T09:22:12;97791.40;;;25.28;35.64
62038;BME280;47991;42.974;12.082;2022-09-12T09:24:43;97788.94;;;25.25;34.47
62038;BME280;47991;42.974;12.082;2022-09-12T09:29:40;97784.09;;;25.70;34.49
62038;BME280;47991;42.974;12.082;2022-09-12T09:32:16;97780.05;;;25.97;32.75
62038;BME280;47991;42.974;12.082;2022-09-12T09:34:44;97778.70;;;26.09;33.05
62038;BME280;47991;42.974;12.082;2022-09-12T09:37:17;97778.64;;;26.04;31.71
62038;BME280;47991;42.974;12.082;2022-09-12T09:40:04;97774.30;;;26.16;33.20
62038;BME280;47991;42.974;12.082;2022-09-12T09:42:49;97775.20;;;26.49;32.59
62038;BME280;47991;42.974;12.082;2022-09-12T09:45:20;97771.52;;;26.61;29.57
62038;BME280;47991;42.974;12.082;2022-09-12T09:50:50;97770.64;;;26.61;31.29
62038;BME280;47991;42.974;12.082;2022-09-12T09:55:52;97771.26;;;26.91;31.24
62038;BME280;47991;42.974;12.082;2022-09-12T09:58:28;97772.26;;;27.06;31.16
62038;BME280;47991;42.974;12.082;2022-09-12T10:01:03;97770.58;;;27.32;31.10
62038;BME280;47991;42.974;12.082;2022-09-12T10:03:31;97768.66;;;27.09;28.88
62038;BME280;47991;42.974;12.082;2022-09-12T10:05:59;97768.83;;;26.77;29.89
62038;BME280;47991;42.974;12.082;2022-09-12T10:10:58;97767.10;;;27.29;29.54
62038;BME280;47991;42.974;12.082;2022-09-12T10:16:03;97762.94;;;27.57;28.17
62038;BME280;47991;42.974;12.082;2022-09-12T10:18:38;97765.02;;;27.49;27.68
62038;BME280;47991;42.974;12.082;2022-09-12T10:21:13;97757.52;;;27.44;28.58
62038;BME280;47991;42.974;12.082;2022-09-12T10:23:41;97758.27;;;27.42;27.85
62038;BME280;47991;42.974;12.082;2022-09-12T10:26:11;97756.30;;;27.49;26.17
62038;BME280;47991;42.974;12.082;2022-09-12T10:31:09;97755.05;;;27.65;24.64
62038;BME280;47991;42.974;12.082;2022-09-12T10:33:43;97751.09;;;28.07;26.88
62038;BME280;47991;42.974;12.082;2022-09-12T10:36:12;97747.60;;;27.97;24.30
62038;BME280;47991;42.974;12.082;2022-09-12T10:38:40;97745.54;;;27.57;22.98
62038;BME280;47991;42.974;12.082;2022-09-12T10:41:14;97745.16;;;27.74;23.38
62038;BME280;47991;42.974;12.082;2022-09-12T10:43:42;97742.64;;;27.70;23.21
62038;BME280;47991;42.974;12.082;2022-09-12T10:53:52;97738.58;;;27.81;24.23
62038;BME280;47991;42.974;12.082;2022-09-12T10:56:44;97732.27;;;28.08;22.95
62038;BME280;47991;42.974;12.082;2022-09-12T10:59:27;97727.31;;;28.27;21.52
62038;BME280;47991;42.974;12.082;2022-09-12T11:01:59;97724.87;;;28.21;20.84
62038;BME280;47991;42.974;12.082;2022-09-12T11:04:48;97729.20;;;28.08;20.57
62038;BME280;47991;42.974;12.082;2022-09-12T11:07:35;97726.48;;;27.84;19.31
62038;BME280;47991;42.974;12.082;2022-09-12T11:10:10;97727.31;;;28.20;20.62
62038;BME280;47991;42.974;12.082;2022-09-12T11:18:16;97728.27;;;28.89;21.65
62038;BME280;47991;42.974;12.082;2022-09-12T11:23:34;97726.26;;;28.94;20.81
62038;BME280;47991;42.974;12.082;2022-09-12T11:31:13;97720.13;;;28.79;20.74
62038;BME280;47991;42.974;12.082;2022-09-12T11:33:44;97713.93;;;28.76;19.71
62038;BME280;47991;42.974;12.082;2022-09-12T11:39:00;97706.48;;;29.00;19.79
62038;BME280;47991;42.974;12.082;2022-09-12T11:41:30;97706.48;;;29.13;20.33
62038;BME280;47991;42.974;12.082;2022-09-12T11:44:01;97704.75;;;28.78;20.31
62038;BME280;47991;42.974;12.082;2022-09-12T11:46:32;97706.83;;;28.71;22.21
62038;BME280;47991;42.974;12.082;2022-09-12T11:51:43;97704.41;;;29.33;22.42
62038;BME280;47991;42.974;12.082;2022-09-12T11:54:22;97700.21;;;29.50;22.62
62038;BME280;47991;42.974;12.082;2022-09-12T12:02:04;97691.71;;;29.49;22.18
62038;BME280;47991;42.974;12.082;2022-09-12T12:04:38;97687.36;;;29.27;22.45
62038;BME280;47991;42.974;12.082;2022-09-12T12:07:11;97683.75;;;28.90;21.65
62038;BME280;47991;42.974;12.082;2022-09-12T12:09:48;97687.61;;;28.60;21.70
62038;BME280;47991;42.974;12.082;2022-09-12T12:12:25;97689.02;;;28.53;22.06
62038;BME280;47991;42.974;12.082;2022-09-12T12:14:55;97688.64;;;28.69;23.14
62038;BME280;47991;42.974;12.082;2022-09-12T12:17:23;97687.73;;;28.74;22.46
62038;BME280;47991;42.974;12.082;2022-09-12T12:20:00;97687.02;;;28.60;22.13
62038;BME280;47991;42.974;12.082;2022-09-12T12:22:28;97681.02;;;28.74;22.33
62038;BME280;47991;42.974;12.082;2022-09-12T12:25:06;97677.75;;;28.83;23.24
62038;BME280;47991;42.974;12.082;2022-09-12T12:27:44;97676.94;;;29.44;23.43
62038;BME280;47991;42.974;12.082;2022-09-12T12:32:55;97673.77;;;29.54;22.39
62038;BME280;47991;42.974;12.082;2022-09-12T12:43:41;97662.13;;;30.66;21.21
62038;BME280;47991;42.974;12.082;2022-09-12T12:46:09;97652.66;;;30.35;22.09
62038;BME280;47991;42.974;12.082;2022-09-12T12:51:29;97654.29;;;30.68;22.70
62038;BME280;47991;42.974;12.082;2022-09-12T12:54:01;97654.59;;;31.04;23.22
62038;BME280;47991;42.974;12.082;2022-09-12T12:56:40;97652.18;;;31.28;22.26
62038;BME280;47991;42.974;12.082;2022-09-12T12:59:13;97653.84;;;31.52;22.42
62038;BME280;47991;42.974;12.082;2022-09-12T13:01:49;97649.44;;;31.83;22.09
62038;BME280;47991;42.974;12.082;2022-09-12T13:04:20;97640.77;;;32.10;22.54
62038;BME280;47991;42.974;12.082;2022-09-12T13:06:58;97641.20;;;32.37;22.31
62038;BME280;47991;42.974;12.082;2022-09-12T13:11:57;97640.88;;;32.16;20.38
62038;BME280;47991;42.974;12.082;2022-09-12T13:17:16;97640.16;;;32.55;20.65
62038;BME280;47991;42.974;12.082;2022-09-12T13:19:45;97637.82;;;32.78;22.24
62038;BME280;47991;42.974;12.082;2022-09-12T13:22:13;97637.08;;;32.95;20.40
62038;BME280;47991;42.974;12.082;2022-09-12T13:24:41;97636.08;;;33.14;20.09
62038;BME280;47991;42.974;12.082;2022-09-12T13:27:28;97631.77;;;33.23;19.50
62038;BME280;47991;42.974;12.082;2022-09-12T13:32:53;97625.69;;;33.33;21.61
62038;BME280;47991;42.974;12.082;2022-09-12T13:43:14;97615.54;;;33.40;21.19
62038;BME280;47991;42.974;12.082;2022-09-12T13:45:44;97607.15;;;33.56;20.55
62038;BME280;47991;42.974;12.082;2022-09-12T13:48:14;97608.08;;;33.60;19.55
62038;BME280;47991;42.974;12.082;2022-09-12T13:53:16;97607.77;;;33.62;19.79
62038;BME280;47991;42.974;12.082;2022-09-12T13:56:01;97605.18;;;33.65;19.53
62038;BME280;47991;42.974;12.082;2022-09-12T13:58:30;97602.20;;;33.66;17.80
62038;BME280;47991;42.974;12.082;2022-09-12T14:01:19;97602.85;;;33.74;19.58
62038;BME280;47991;42.974;12.082;2022-09-12T14:03:50;97601.13;;;33.33;15.95
62038;BME280;47991;42.974;12.082;2022-09-12T14:06:46;97602.33;;;33.22;17.83
62038;BME280;47991;42.974;12.082;2022-09-12T14:09:15;97600.04;;;33.48;20.20
62038;BME280;47991;42.974;12.082;2022-09-12T14:11:45;97596.81;;;33.82;19.39
62038;BME280;47991;42.974;12.082;2022-09-12T14:16:58;97592.01;;;33.90;16.06
62038;BME280;47991;42.974;12.082;2022-09-12T14:19:26;97587.74;;;33.86;16.86
62038;BME280;47991;42.974;12.082;2022-09-12T14:21:55;97587.68;;;33.89;17.60
62038;BME280;47991;42.974;12.082;2022-09-12T14:24:23;97589.92;;;33.76;17.16
62038;BME280;47991;42.974;12.082;2022-09-12T14:26:51;97587.11;;;33.72;17.26
62038;BME280;47991;42.974;12.082;2022-09-12T14:29:20;97584.12;;;33.68;16.51
62038;BME280;47991;42.974;12.082;2022-09-12T14:31:58;97581.53;;;33.61;16.65
62038;BME280;47991;42.974;12.082;2022-09-12T14:34:26;97581.41;;;33.40;15.69
62038;BME280;47991;42.974;12.082;2022-09-12T14:36:54;97576.77;;;33.18;15.09
62038;BME280;47991;42.974;12.082;2022-09-12T14:39:27;97582.09;;;33.04;15.59
62038;BME280;47991;42.974;12.082;2022-09-12T14:42:03;97581.90;;;32.87;14.41
62038;BME280;47991;42.974;12.082;2022-09-12T14:44:31;97578.02;;;32.76;15.09
62038;BME280;47991;42.974;12.082;2022-09-12T14:47:09;97576.05;;;32.65;15.83
62038;BME280;47991;42.974;12.082;2022-09-12T14:49:37;97574.92;;;32.46;16.32
62038;BME280;47991;42.974;12.082;2022-09-12T14:52:07;97575.21;;;32.06;15.69
62038;BME280;47991;42.974;12.082;2022-09-12T14:54:42;97576.45;;;31.87;16.01
62038;BME280;47991;42.974;12.082;2022-09-12T15:02:53;97578.52;;;31.43;16.73
62038;BME280;47991;42.974;12.082;2022-09-12T15:05:22;97576.40;;;31.00;17.51
62038;BME280;47991;42.974;12.082;2022-09-12T15:08:00;97576.95;;;30.72;17.48
62038;BME280;47991;42.974;12.082;2022-09-12T15:10:29;97575.72;;;30.51;20.03
62038;BME280;47991;42.974;12.082;2022-09-12T15:15:30;97570.64;;;30.64;19.56
62038;BME280;47991;42.974;12.082;2022-09-12T15:17:58;97565.98;;;30.31;19.32
62038;BME280;47991;42.974;12.082;2022-09-12T15:20:25;97563.70;;;29.65;18.53
62038;BME280;47991;42.974;12.082;2022-09-12T15:22:53;97566.79;;;29.46;20.20
62038;BME280;47991;42.974;12.082;2022-09-12T15:25:20;97561.75;;;29.55;19.90
62038;BME280;47991;42.974;12.082;2022-09-12T15:27:49;97563.48;;;29.44;20.61
62038;BME280;47991;42.974;12.082;2022-09-12T15:30:18;97559.65;;;29.44;20.35
62038;BME280;47991;42.974;12.082;2022-09-12T15:32:46;97558.23;;;29.35;19.74
62038;BME280;47991;42.974;12.082;2022-09-12T15:35:14;97563.36;;;29.23;20.74
62038;BME280;47991;42.974;12.082;2022-09-12T15:37:42;97562.59;;;29.31;21.00
62038;BME280;47991;42.974;12.082;2022-09-12T15:40:12;97562.55;;;29.36;21.08
62038;BME280;47991;42.974;12.082;2022-09-12T15:42:39;97565.00;;;29.28;19.84
62038;BME280;47991;42.974;12.082;2022-09-12T15:45:20;97562.35;;;29.26;19.94
62038;BME280;47991;42.974;12.082;2022-09-12T15:47:49;97561.67;;;29.36;20.75